HOURLY OBS INDEX

097

West Coast Mountain Region

CAPE SORELL

Site: 097000
Alt: 19.3m
34km WSW of QUEENSTOWN


  Time     Wind        Temp  DP   Baro     Rain since   Rain past  Vis(m), Cloud(base in m), Weather
  local        km/h                         9am  last   hr   10m    
Wed 10:00   NE  9/ 13  17.4 15.9  1012.5    0.0   0.0   0.0   0.0   ----- 
Wed 11:00    C  0/  0  18.4 16.7  1012.3    0.0   0.0   0.0   0.0   ----- 
Wed 11:00    C  0/  0  18.4 16.7  1012.3    0.0   0.0  ----   0.0   ----- 
Wed 11:30    S  4/  7  17.5 15.5  1012.3    0.0   0.0  ----   0.0   ----- 
Wed 12:00    C  0/  0  18.9 16.9  1012.1    0.0   0.0   0.0   0.0   ----- 
Wed 12:30  WNW 11/ 20  18.4 16.2  1012.2    0.0   0.0   0.0   0.0   ----- 
Wed 13:00  WNW 17/ 22  16.8 14.6  1012.0    0.0   0.0   0.0   0.0   ----- 
Wed 13:30    W 13/ 19  15.9 13.9  1012.1    0.0   0.0   0.0   0.0   ----- 
Wed 14:00    W  9/ 17  16.1 14.1  1012.1    0.0   0.0   0.0   0.0   ----- 
Wed 14:30    W  7/ 15  15.9 13.9  1012.1    0.0   0.0   0.0   0.0   ----- 
Wed 15:00   NW  2/  6  15.7 13.7  1012.0    0.0   0.0   0.0   0.0   ----- 
Wed 15:30  NNE  4/  6  15.3 13.3  1011.6    0.0   0.0   0.0   0.0   ----- 

LOW ROCKY POINT

Site: 097080
Alt: 34.0m
51km WSW of STRATHGORDON VILLAGE


  Time     Wind        Temp  DP   Baro     Rain since   Rain past  Vis(m), Cloud(base in m), Weather
  local        km/h                         9am  last   hr   10m    
Wed 10:00    C  0/  0  16.1 15.9  1013.1    0.6   0.2   0.6   0.0   ----- 
Wed 11:00    S  9/  9  16.8 16.6  1013.0    0.6   0.0   0.0   0.0   ----- 
Wed 11:00    S  9/  9  16.8 16.6  1013.0    0.6   0.0  ----   0.0   ----- 
Wed 11:30  SSE 11/ 15  16.5 16.3  1012.9    0.6   0.0  ----   0.0   ----- 
Wed 12:00   SE 15/ 19  15.8 15.6  1012.6    0.6   0.0   0.0   0.0   ----- 
Wed 12:30   SE 15/ 17  15.9 15.7  1012.2    0.6   0.0   0.0   0.0   ----- 
Wed 13:00   SE 13/ 17  16.1 15.9  1012.0    0.6   0.0   0.0   0.0   ----- 
Wed 13:30   SE 13/ 17  16.2 15.9  1011.9    0.6   0.0   0.0   0.0   ----- 
Wed 14:00   SE 15/ 19  17.0 16.5  1011.6    0.6   0.0   0.0   0.0   ----- 
Wed 14:30  SSE 13/ 15  15.1 14.3  1011.5    0.6   0.0   0.0   0.0   ----- 
Wed 15:00    W  7/ 11  14.3 13.8  1012.0    4.8   4.2   4.2   1.6   ----- 
Wed 15:30   SE  2/  7  14.4 14.2  1011.6    7.8   3.0   7.2   0.6   ----- 

MOUNT READ

Site: 097085
Alt: 1119.5m
26km N of QUEENSTOWN


  Time     Wind        Temp  DP   Baro     Rain since   Rain past  Vis(m), Cloud(base in m), Weather
  local        km/h                         9am  last   hr   10m    
Wed 10:00  NNE 35/ 43  11.0 11.0  1014.4    0.0   0.0   0.0   0.0   ----- 
Wed 11:00  NNE 30/ 37  11.6 11.4  1014.7    0.0   0.0   0.0   0.0   ----- 
Wed 11:00  NNE 30/ 37  11.6 11.4  1014.7    0.0   0.0  ----   0.0   ----- 
Wed 11:30    N 28/ 37  11.3 11.3  1014.7    0.0   0.0  ----   0.0   ----- 
Wed 12:00    N 32/ 41  12.3 11.8  1014.4    0.0   0.0   0.0   0.0   ----- 
Wed 12:30  NNE 26/ 35  11.7 10.4  1014.2    0.0   0.0   0.0   0.0   ----- 
Wed 13:00  NNE 26/ 37  11.5 10.4  1014.1    0.0   0.0   0.0   0.0   ----- 
Wed 13:30  NNE 20/ 30  11.1 10.3  1014.1    0.0   0.0   0.0   0.0   ----- 
Wed 14:00  NNE 24/ 32  10.7 10.4  1014.0    0.0   0.0   0.0   0.0   ----- 
Wed 14:30  NNE 22/ 33  10.4 10.2  1013.9    0.0   0.0   0.0   0.0   ----- 
Wed 15:00  NNE 20/ 28  10.2 10.2  1013.7    0.0   0.0   0.0   0.0   ----- 
Wed 15:30    N 19/ 28  10.2 10.2  1013.4    0.0   0.0   0.0   0.0   ----- 

SCOTTS PEAK DAM

Site: 097083
Alt: 408.0m
36km SSE of STRATHGORDON VILLAGE


  Time     Wind        Temp  DP   Baro     Rain since   Rain past  Vis(m), Cloud(base in m), Weather
  local        km/h                         9am  last   hr   10m    
Wed 10:00   SE  7/ 11  16.1 16.1  ------    0.0   0.0   0.0   0.0   ----- 
Wed 11:00   SE  9/ 11  17.0 15.7  ------    0.0   0.0   0.0   0.0   ----- 
Wed 11:00   SE  9/ 11  17.0 15.7  ------    0.0   0.0  ----   0.0   ----- 
Wed 11:30  ENE  4/  7  17.6 16.3  ------    0.0   0.0  ----   0.0   ----- 
Wed 12:00  NNW  6/  9  17.5 16.5  ------    0.0   0.0   0.0   0.0   ----- 
Wed 12:30    N  2/  6  17.1 15.1  ------    0.0   0.0   0.0   0.0   ----- 
Wed 13:00    C  0/  6  17.6 15.9  ------    0.6   0.6   0.6   0.2   ----- 
Wed 13:30  SSE 11/ 15  16.4 15.8  ------    0.8   0.2   0.8   0.2   ----- 
Wed 14:00  SSE 13/ 17  15.9 15.6  ------    0.8   0.0   0.2   0.0   ----- 
Wed 14:30   SE 11/ 15  16.0 16.0  ------    0.8   0.0   0.0   0.0   ----- 
Wed 15:00   SE  9/ 11  16.1 16.1  ------    0.8   0.0   0.0   0.0   ----- 
Wed 15:30  SSE 13/ 15  15.5 15.5  ------    1.2   0.4   0.4   0.2   ----- 

STRAHAN AERODROME

Site: 097072
Alt: 21.0m
23km WSW of QUEENSTOWN


  Time     Wind        Temp  DP   Baro     Rain since   Rain past  Vis(m), Cloud(base in m), Weather
  local        km/h                         9am  last   hr   10m    
Wed 10:00   SE  6/  7  18.6 17.3  1012.6    0.0   0.0   0.0   0.0   10000|BR1230 BR2490 
Wed 11:00  SSE  2/ 13  19.2 16.1  1012.6    0.0   0.0   0.0   0.0   10000|BR2130 OC2610 
Wed 11:00  SSE  2/ 13  19.2 16.1  1012.6    0.0   0.0  ----   0.0   10000|BR2130 OC2610 
Wed 11:30   NW  4/  9  19.8 16.1  1012.5    0.0   0.0  ----   0.0   10000|BR1950 
Wed 12:00   SE  6/  9  20.9 16.9  1012.2    0.0   0.0   0.0   0.0   10000|OC2010 
Wed 12:30    E  9/ 13  20.5 16.3  1012.1    0.0   0.0   0.0   0.0   10000|SC 570 BR 840 BR1770 
Wed 13:00  WNW 26/ 33  16.8 13.9  1012.3    0.0   0.0   0.0   0.0   10000|SC 660 SC1710 SC3300 
Wed 13:30  WNW 19/ 26  16.3 14.0  1012.5    0.0   0.0   0.0   0.0   10000|SC 390 SC1890 
Wed 13:38  WNW 19/ 22  16.3 14.1  1012.4    0.0   0.0  ----   0.0   10000|BR 390 BR1890 
Wed 14:00   NW 15/ 20  16.0 13.7  1012.5    0.0   0.0   0.0   0.0   10000|SC 270 OC 450 
Wed 14:30  WNW  9/ 15  15.7 13.7  1012.5    0.0   0.0   0.0   0.0   10000|BR 180 OC 330 
Wed 15:00   NW 11/ 13  15.4 13.4  1012.4    0.0   0.0   0.0   0.0   10000|SC 180 OC 330 
Wed 15:30   NW  4/  7  15.7 13.5  1012.0    0.0   0.0   0.0   0.0   10000|OC 450 
Wed 15:45   NW  6/  7  15.7 13.5  1012.1    0.0   0.0   0.0   0.0   10000|OC 510 

WARRA

Site: 097024
Alt: 495.0m
28km W of HUONVILLE


  Time     Wind        Temp  DP   Baro     Rain since   Rain past  Vis(m), Cloud(base in m), Weather
  local        km/h                         9am  last   hr   10m    
Wed 10:00    E  6/  9  16.3 12.7  ------    0.0   0.0   0.0   0.0   ----- 
Wed 11:00    E  7/  9  16.3 13.2  ------    0.0   0.0   0.0   0.0   ----- 
Wed 11:00    E  7/  9  16.3 13.2  ------    0.0   0.0  ----   0.0   ----- 
Wed 11:30    E  6/  7  15.7 13.0  ------    0.0   0.0  ----   0.0   ----- 
Wed 12:00    E  2/  6  15.4 13.9  ------    0.4   0.4   0.4   0.0   ----- 
Wed 12:30    C  0/  0  15.4 14.4  ------    1.2   0.8   1.2   0.2   ----- 
Wed 13:00    C  0/  0  15.3 14.7  ------    1.8   0.6   1.4   0.4   ----- 
Wed 13:30    C  0/  0  15.2 15.2  ------    2.8   1.0   1.6   0.4   ----- 
Wed 14:00  ESE  4/  7  15.1 14.6  ------    2.8   0.0   1.0   0.0   ----- 
Wed 14:30    C  0/  0  15.0 14.7  ------    2.8   0.0   0.0   0.0   ----- 
Wed 15:00    C  0/  0  15.2 15.2  ------    2.8   0.0   0.0   0.0   ----- 
Wed 15:30    C  0/  0  15.0 15.0  ------    3.2   0.4   0.4   0.2   -----